createdAt,value
2023-03-23T15:57:56.516Z,0.60
2023-03-23T16:00:26.002Z,0.60
2023-03-23T16:03:04.838Z,0.70
2023-03-23T16:05:31.394Z,0.47
2023-03-23T16:07:58.567Z,0.80
2023-03-23T16:10:26.564Z,0.70
2023-03-23T16:12:53.405Z,0.88
2023-03-23T16:15:20.786Z,0.67
2023-03-23T16:17:47.732Z,0.60
2023-03-23T16:20:20.130Z,0.70
2023-03-23T16:22:47.543Z,0.63
2023-03-23T16:25:15.250Z,0.80
2023-03-23T16:27:42.760Z,0.90
2023-03-23T16:30:26.485Z,0.70
2023-03-23T16:32:54.894Z,1.70
2023-03-23T16:35:23.611Z,1.88
2023-03-23T16:38:08.346Z,1.10
2023-03-23T16:40:38.562Z,1.03
2023-03-23T16:43:08.534Z,2.00
2023-03-23T16:45:36.885Z,1.85
2023-03-23T16:48:03.351Z,2.33
2023-03-23T16:50:31.902Z,2.50
2023-03-23T16:52:58.970Z,1.60
2023-03-23T16:55:26.992Z,1.65
2023-03-23T16:58:00.985Z,1.40
2023-03-23T17:00:36.124Z,0.80
2023-03-23T17:03:02.566Z,1.20
2023-03-23T17:05:29.657Z,1.20
2023-03-23T17:07:56.592Z,1.00
2023-03-23T17:10:25.252Z,1.25
2023-03-23T17:12:51.585Z,1.30
2023-03-23T17:15:18.101Z,1.20
2023-03-23T17:17:44.810Z,1.10
2023-03-23T17:20:12.231Z,1.10
2023-03-23T17:22:39.612Z,1.35
2023-03-23T17:25:08.279Z,1.23
2023-03-23T17:27:35.696Z,1.15
2023-03-23T17:30:04.091Z,1.33
2023-03-23T17:32:30.475Z,1.35
2023-03-23T17:34:57.098Z,1.20
2023-03-23T17:37:23.462Z,1.08
2023-03-23T17:39:49.840Z,1.20
2023-03-23T17:42:16.440Z,1.43
2023-03-23T17:44:42.809Z,1.38
2023-03-23T17:47:09.250Z,1.80
2023-03-23T17:49:36.041Z,1.63
2023-03-23T17:52:02.666Z,1.80
2023-03-23T17:54:30.906Z,2.20
2023-03-23T17:56:58.674Z,2.40
2023-03-23T17:59:25.971Z,2.20
2023-03-23T18:01:52.909Z,3.10
2023-03-23T18:04:19.607Z,2.95
2023-03-23T18:06:46.430Z,1.87
2023-03-23T18:09:12.868Z,1.90
2023-03-23T18:11:39.213Z,2.03
2023-03-23T18:14:05.597Z,2.70
2023-03-23T18:16:32.116Z,3.47
2023-03-23T18:18:58.505Z,3.20
2023-03-23T18:21:25.990Z,3.20
2023-03-23T18:23:59.161Z,2.47
2023-03-23T18:26:26.898Z,1.73
2023-03-23T18:28:53.280Z,1.58
2023-03-23T18:31:20.845Z,1.70
2023-03-23T18:33:49.422Z,1.70
2023-03-23T18:36:19.599Z,2.17
2023-03-23T18:38:46.455Z,1.98
2023-03-23T18:41:13.972Z,2.60
2023-03-23T18:43:40.936Z,2.43
2023-03-23T18:46:07.881Z,2.40
2023-03-23T18:48:35.766Z,2.40
2023-03-23T18:51:02.563Z,2.20
2023-03-23T18:53:29.155Z,1.80
2023-03-23T18:56:05.709Z,1.80
2023-03-23T18:58:32.716Z,1.90
2023-03-23T19:01:03.003Z,1.70
2023-03-23T19:03:29.494Z,1.77
2023-03-23T19:05:59.334Z,1.60
2023-03-23T19:08:27.364Z,1.80
2023-03-23T19:11:01.464Z,1.90
2023-03-23T19:13:29.994Z,1.95
2023-03-23T19:15:56.825Z,1.80
2023-03-23T19:18:23.474Z,1.80
2023-03-23T19:23:23.165Z,1.90
2023-03-23T19:25:50.228Z,1.70
2023-03-23T19:30:48.125Z,1.90
2023-03-23T19:33:15.466Z,1.90
2023-03-23T19:35:42.752Z,2.08
2023-03-23T19:38:11.110Z,1.80
2023-03-23T19:40:42.036Z,1.88
2023-03-23T19:43:09.285Z,2.08
2023-03-23T19:45:36.329Z,2.00
2023-03-23T19:48:02.845Z,1.98
2023-03-23T19:50:29.209Z,1.83
2023-03-23T19:52:58.690Z,2.00
2023-03-23T19:55:26.492Z,2.22
2023-03-23T19:57:52.846Z,1.80
2023-03-23T20:00:19.441Z,1.42
2023-03-23T20:02:45.889Z,1.83
2023-03-23T20:05:12.668Z,1.50
2023-03-23T20:07:41.168Z,2.10
2023-03-23T20:10:09.129Z,1.67
2023-03-23T20:12:35.955Z,1.80
2023-03-23T20:15:03.480Z,1.88
2023-03-23T20:17:30.134Z,2.10
2023-03-23T20:19:56.647Z,1.75
2023-03-23T20:22:23.013Z,1.80
2023-03-23T20:24:49.509Z,2.00
2023-03-23T20:27:16.593Z,2.10
2023-03-23T20:29:43.043Z,2.90
2023-03-23T20:32:09.520Z,2.10
2023-03-23T20:34:36.248Z,2.20
2023-03-23T20:37:03.133Z,2.10
2023-03-23T20:39:31.604Z,2.20
2023-03-23T20:42:01.881Z,2.30
2023-03-23T20:44:31.112Z,2.00
2023-03-23T20:46:58.153Z,2.10
2023-03-23T20:49:24.908Z,2.97
2023-03-23T20:51:51.929Z,2.40
2023-03-23T20:54:19.630Z,2.58
2023-03-23T20:56:46.861Z,2.83
2023-03-23T20:59:14.026Z,2.60
2023-03-23T21:01:40.503Z,2.40
2023-03-23T21:04:14.719Z,2.20
2023-03-23T21:06:42.739Z,2.65
2023-03-23T21:09:09.501Z,2.17
2023-03-23T21:11:35.856Z,2.70
2023-03-23T21:14:03.317Z,2.40
2023-03-23T21:16:29.868Z,2.63
2023-03-23T21:18:56.650Z,2.60
2023-03-23T21:21:23.692Z,2.40
2023-03-23T21:23:52.773Z,2.83
2023-03-23T21:26:22.552Z,3.22
2023-03-23T21:28:50.713Z,3.97
2023-03-23T21:31:18.159Z,3.42
2023-03-23T21:33:44.611Z,2.88
2023-03-23T21:36:11.603Z,2.60
2023-03-23T21:38:39.767Z,3.08
2023-03-23T21:41:09.327Z,2.95
2023-03-23T21:43:36.045Z,2.70
2023-03-23T21:46:05.338Z,2.90
2023-03-23T21:48:32.968Z,2.90
2023-03-23T21:51:06.605Z,3.00
2023-03-23T21:53:36.649Z,2.80
2023-03-23T21:56:05.416Z,2.75
2023-03-23T21:58:32.663Z,2.60
2023-03-23T22:01:01.133Z,3.10
2023-03-23T22:03:32.094Z,2.72
2023-03-23T22:06:05.185Z,2.45
2023-03-23T22:08:31.555Z,2.72
2023-03-23T22:11:07.793Z,2.95
2023-03-23T22:13:37.062Z,2.63
2023-03-23T22:16:06.742Z,3.00
2023-03-23T22:18:34.646Z,2.63
2023-03-23T22:21:01.137Z,3.10
2023-03-23T22:23:28.033Z,2.88
2023-03-23T22:25:56.604Z,2.67
2023-03-23T22:28:26.341Z,3.15
2023-03-23T22:30:58.987Z,2.95
2023-03-23T22:33:25.355Z,2.80
2023-03-23T22:35:51.937Z,3.42
2023-03-23T22:38:18.317Z,3.10
2023-03-23T22:40:44.984Z,3.33
2023-03-23T22:43:11.515Z,3.58
2023-03-23T22:45:37.902Z,3.20
2023-03-23T22:48:07.667Z,3.08
2023-03-23T22:50:34.190Z,2.80
2023-03-23T22:53:00.779Z,3.20
2023-03-23T22:55:27.146Z,2.78
2023-03-23T22:57:53.517Z,3.20
2023-03-23T23:00:20.663Z,2.92
2023-03-23T23:02:47.133Z,2.90
2023-03-23T23:05:14.298Z,3.15
2023-03-23T23:07:40.727Z,3.45
2023-03-23T23:10:07.754Z,3.47
2023-03-23T23:12:35.159Z,3.20
2023-03-23T23:15:03.000Z,3.27
2023-03-23T23:17:31.737Z,3.67
2023-03-23T23:19:59.471Z,3.28
2023-03-23T23:22:26.427Z,3.55
2023-03-23T23:24:52.842Z,3.70
2023-03-23T23:27:19.536Z,3.60
2023-03-23T23:29:45.923Z,3.65
2023-03-23T23:32:12.468Z,3.80
2023-03-23T23:34:39.011Z,3.70
2023-03-23T23:37:05.679Z,3.38
2023-03-23T23:39:32.064Z,3.20
2023-03-23T23:41:58.479Z,3.80
2023-03-23T23:44:24.881Z,3.22
2023-03-23T23:46:51.387Z,3.15
2023-03-23T23:49:17.768Z,3.53
2023-03-23T23:51:44.678Z,3.40
2023-03-23T23:54:11.152Z,3.78
2023-03-23T23:56:37.568Z,4.38
2023-03-23T23:59:04.030Z,4.88
